x

Frying Pan Shoals, Nc Buoy (41013) Wave Buoy

8:50am - Fri 28th Aug 2015 All times are EDT. -4 hours from GMT.

  • Sig Wave height 3.6ft
  • Swell Direction
  • Peak Period 9s
  • Average Period 5s
  • Wind
    16mph, 18mph gusts
  • Sea Temp 81°f
  • 空気 Temp 81°f
  • Sea Pressure 1018.7mb
  • Frying Pan Shoals, Nc Buoy
  • Frying Pan Shoals, Nc Buoy

More Historic Weather Station data

Upgrade to MSW Pro to gain access to the past 30 days of data for over 8000 Wavebouys and Weather Stations around the globe.

Join Pro

Comparision Forecast

View Surf forecast
   
Fri 08/28 8:50am 3.5ft 9s 5s 16 18 mph 1018.7mb 81f 81f
7:50am  -   -   -  13 18 mph 1018.2mb 81f 80f
6:50am  -   -   -  11 13 mph 1017.7mb 81f 80f
5:50am  -   -   -  11 13 mph 1017mb 81f 80f
4:50am  -   -   -  11 13 mph 1016.7mb 81f 80f
3:50am  -   -   -  11 13 mph 1016.8mb 81f 80f
2:50am  -   -   -  9 11 mph 1017.1mb 81f 79f
1:50am  -   -   -  7
mph
1017.4mb 81f 79f
12:50am  -   -   -  9 13 mph 1017.8mb 81f 78f
Thu 08/27 11:50pm  -   -   -  9 11 mph 1017.9mb 81f 79f
10:50pm  -   -   -  20 25 mph 1017.1mb 82f 80f
9:50pm  -   -   -  11 13 mph 1017mb 82f 81f
8:50pm  -   -   -  18 20 mph 1016.3mb 82f 80f
7:50pm  -   -   -  13 16 mph 1015.9mb 82f 81f
6:50pm  -   -   -  16 18 mph 1015.6mb 82f 82f
5:50pm  -   -   -  16 18 mph 1015.2mb 82f 81f
4:50pm  -   -   -  7
mph
1015.2mb 82f 81f
3:50pm  -   -   -  7 9 mph 1015.3mb 82f 80f
2:50pm  -   -   -  4 7 mph 1015.9mb 82f 79f
1:50pm  -   -   -  11 13 mph 1016.5mb 82f 77f
12:50pm  -   -   -  16 20 mph 1016mb 82f 81f
11:50am  -   -   -  2 4 mph 1016.6mb 82f 83f
10:50am  -   -   -  4 7 mph 1016.5mb 82f 83f
9:50am  -   -   -  7
mph
1015.9mb 81f 82f
8:50am  -   -   -  9 11 mph 1015.3mb 81f 81f
7:50am  -   -   -  13 16 mph 1014.7mb 81f 80f
6:50am  -   -   -  20 25 mph 1014mb 81f 78f
5:50am  -   -   -  7 9 mph 1014.2mb 81f 81f
4:50am  -   -   -  16 18 mph 1013.5mb 82f 82f
3:50am  -   -   -  16 20 mph 1013.3mb 82f 82f
2:50am  -   -   -  18 20 mph 1013.9mb 82f 82f
1:50am  -   -   -  16 18 mph 1014.3mb 82f 82f
12:50am  -   -   -  11 13 mph 1014.4mb 82f 83f
Wed 08/26 11:50pm  -   -   -  16 18 mph 1015mb 82f 82f
10:50pm  -   -   -  11 13 mph 1015.1mb 82f 83f
9:50pm  -   -   -  7 9 mph 1014.9mb 83f 83f
8:50pm  -   -   -  13 16 mph 1013.4mb 82f 84f
7:50pm  -   -   -  13 16 mph 1013.4mb 83f 83f
6:50pm  -   -   -  4 7 mph 1013.6mb 83f 84f
5:50pm  -   -   -  4 7 mph 1013.6mb 84f 83f
4:50pm  -   -   -  2 4 mph 1013.3mb 84f 84f
3:50pm  -   -   -  2 4 mph 1013.7mb 83f 83f
2:50pm 2.5ft 10s 5s 4 7 mph 1014.2mb 83f 83f
1:50pm 2.5ft 10s 5s 7 9 mph 1014.4mb 83f 82f
12:50pm 2.5ft 10s 4s 9 11 mph 1014.6mb 83f 82f
11:50am 2.5ft 10s 5s 16 20 mph 1014.9mb 83f 82f
10:50am 2ft 11s 5s 2 4 mph 1014.7mb 82f 83f
9:50am 2ft 11s 6s 16 18 mph 1014.4mb 82f 82f
8:50am 2ft 10s 7s 13 16 mph 1013.3mb 82f 83f
7:50am 2ft 11s 7s 11 13 mph 1013.2mb 82f 83f
6:50am 2ft 10s 7s 7
mph
1012.9mb 82f 83f
5:50am 2ft 11s 7s 7 9 mph 1012.3mb 82f 83f
4:50am 2.5ft 11s 7s 7 9 mph 1012.2mb 83f 83f
3:50am 2ft 11s 6s 7 9 mph 1011.9mb 83f 82f
2:50am 2ft 11s 6s 9
mph
1012.2mb 83f 82f
1:50am 2.5ft 11s 6s 7 9 mph 1012.6mb 83f 83f
12:50am 2.5ft 11s 5s 4 7 mph 1013.1mb 82f 83f
Tue 08/25 11:50pm 2ft 10s 6s 4 7 mph 1012.8mb 82f 83f
10:50pm 2.5ft 10s 6s 7
mph
1013mb 82f 83f
9:50pm 2ft 11s 6s 7 9 mph 1012.9mb 82f 83f
8:50pm 2.5ft 11s 5s 7 9 mph 1012.6mb 83f 83f
7:50pm 2.5ft 10s 6s 11 13 mph 1011.8mb 83f 83f
6:50pm 2.5ft 10s 6s 7 9 mph 1012.1mb 83f 84f
5:50pm 2.5ft 11s 5s 9 11 mph 1011.5mb 82f 84f
4:50pm 2.5ft 11s 5s 9 11 mph 1012mb 82f 83f
3:50pm 2.5ft 11s 5s 11 13 mph 1012.4mb 82f 82f
2:50pm 2ft 11s 7s 11 16 mph 1012.4mb 82f 82f
1:50pm 2ft 11s 7s 9 11 mph 1013.3mb 83f 83f
12:50pm 2.5ft 11s 8s 7 9 mph 1013.6mb 83f 84f
11:50am 2.5ft 11s 8s 7 9 mph 1013.9mb 83f 83f
10:50am 2.5ft 11s 8s 4
mph
1013.7mb 82f 83f
9:50am 2.5ft 11s 8s 4 7 mph 1013.9mb 82f 83f
8:50am 2ft 11s 8s 2 4 mph 1013.4mb 82f 83f
7:50am 2ft 11s 8s 4
mph
1013.2mb 82f 83f
6:50am 2ft 11s 8s 4 7 mph 1013mb 82f 82f
5:50am 2ft 11s 8s 4
mph
1012.4mb 82f 82f
4:50am 2ft 11s 8s 7
mph
1012.3mb 82f 82f
3:50am 1.6ft 11s 7s 7 9 mph 1012.4mb 82f 82f
2:50am 1.6ft 11s 7s 9
mph
1012.6mb 82f 82f
1:50am 1.6ft 11s 7s 7 9 mph 1012.9mb 82f 82f
12:50am 1.6ft 11s 6s 4 7 mph 1013.6mb 83f 82f
Mon 08/24 11:50pm 1.6ft 10s 7s 4 7 mph 1013.5mb 82f 82f
10:50pm 1.6ft 9s 6s 2
mph
1013.6mb 83f 82f
9:50pm 1.6ft 12s 6s 2 4 mph 1013.6mb 83f 82f
8:50pm 1.6ft 10s 6s 4
mph
1013mb 83f 82f
7:50pm 1.6ft 10s 6s 4
mph
1012.9mb 83f 82f
6:50pm 1.6ft 11s 6s 4 7 mph 1012.7mb 83f 83f
5:50pm 1.6ft 11s 6s 4
mph
1012.9mb 83f 82f
4:50pm 2ft 8s 6s 7
mph
1013mb 84f 82f
3:50pm 1.6ft 8s 5s 4 7 mph 1013.4mb 84f 82f
2:50pm 1.6ft 8s 6s 2 4 mph 1013.9mb 85f 82f